Time;durP1;ratioP1;P1;durP2;ratioP2;P2;SDS_P1;SDS_P2;PMS_P1;PMS_P2;Temp;Humidity;BMP_temperature;BMP_pressure;BME280_temperature;BME280_humidity;BME280_pressure;Samples;Min_cycle;Max_cycle;Signal;HPM_P1;HPM_P2
2022/03/18 00:01:12;;;;;;;;;;;5.00;80.60;;;;;;5062847;28;19913;-81
2022/03/18 00:03:37;;;;;;;;;;;4.90;81.50;;;;;;5055471;28;20023;-80
2022/03/18 00:06:03;;;;;;;;;;;4.90;81.30;;;;;;5046404;28;19917;-81
2022/03/18 00:08:28;;;;;;;;;;;4.90;81.20;;;;;;5043063;28;19917;-81
2022/03/18 00:10:56;;;;;;;;;;;4.90;81.50;;;;;;5048497;28;20025;-82
2022/03/18 00:13:21;;;;;;;;;;;4.90;81.10;;;;;;5051117;28;19936;-81
2022/03/18 00:15:47;;;;;;;;;;;4.90;81.00;;;;;;5041797;28;20376;-81
2022/03/18 00:18:12;;;;;;;;;;;4.90;80.80;;;;;;5041323;28;19913;-81
2022/03/18 00:20:38;;;;;;;;;;;4.90;80.80;;;;;;5046855;28;20682;-80
2022/03/18 00:23:03;;;;;;;;;;;4.90;80.70;;;;;;5061479;28;19980;-82
2022/03/18 00:25:29;;;;;;;;;;;4.90;80.60;;;;;;5055852;28;19916;-82
2022/03/18 00:27:55;;;;;;;;;;;4.80;80.90;;;;;;5044269;28;19916;-82
2022/03/18 00:30:21;;;;;;;;;;;4.70;81.20;;;;;;5047147;28;19913;-82
2022/03/18 00:32:46;;;;;;;;;;;4.70;81.40;;;;;;5055346;28;19912;-83
2022/03/18 00:35:12;;;;;;;;;;;4.70;81.30;;;;;;5052591;28;19917;-81
2022/03/18 00:37:38;;;;;;;;;;;4.60;80.80;;;;;;5050615;28;19913;-82
2022/03/18 00:40:04;;;;;;;;;;;4.60;80.80;;;;;;5056791;28;20308;-81
2022/03/18 00:42:31;;;;;;;;;;;4.80;80.10;;;;;;5047452;28;19924;-81
2022/03/18 00:44:57;;;;;;;;;;;4.60;80.10;;;;;;5056372;28;20304;-82
2022/03/18 00:52:51;;;;;;;;;;;4.60;80.40;;;;;;5052474;28;20012;-81
2022/03/18 00:55:17;;;;;;;;;;;4.60;80.30;;;;;;5044502;28;19952;-81
2022/03/18 00:57:42;;;;;;;;;;;4.60;80.50;;;;;;5042448;28;19920;-82
2022/03/18 01:00:08;;;;;;;;;;;4.60;80.70;;;;;;5053533;28;19924;-82
2022/03/18 01:02:33;;;;;;;;;;;4.60;80.80;;;;;;5051143;28;20635;-82
2022/03/18 01:04:59;;;;;;;;;;;4.60;81.00;;;;;;5054967;28;19919;-82
2022/03/18 01:07:25;;;;;;;;;;;4.60;80.50;;;;;;5048187;28;20313;-82
2022/03/18 01:09:50;;;;;;;;;;;4.60;80.90;;;;;;5051804;28;19913;-81
2022/03/18 01:12:16;;;;;;;;;;;4.60;80.80;;;;;;5041013;28;19913;-82
2022/03/18 01:14:41;;;;;;;;;;;4.50;80.90;;;;;;5070775;28;19944;-81
2022/03/18 01:17:07;;;;;;;;;;;4.50;80.80;;;;;;5046381;28;20015;-81
2022/03/18 01:19:32;;;;;;;;;;;4.60;80.70;;;;;;5053244;28;19924;-81
2022/03/18 01:21:57;;;;;;;;;;;4.50;80.50;;;;;;5051656;28;19916;-82
2022/03/18 01:24:23;;;;;;;;;;;4.50;80.90;;;;;;5065366;28;19916;-81
2022/03/18 01:26:48;;;;;;;;;;;4.50;80.90;;;;;;5038109;28;19944;-80
2022/03/18 01:29:14;;;;;;;;;;;4.30;80.70;;;;;;5049539;28;19966;-80
2022/03/18 01:31:39;;;;;;;;;;;4.30;81.00;;;;;;5043359;28;19913;-81
2022/03/18 01:34:05;;;;;;;;;;;4.40;80.60;;;;;;5038175;28;19943;-81
2022/03/18 01:36:30;;;;;;;;;;;4.40;80.60;;;;;;5045636;28;19917;-81
2022/03/18 01:38:56;;;;;;;;;;;4.40;80.90;;;;;;5052398;28;19912;-80
2022/03/18 01:41:21;;;;;;;;;;;4.40;80.50;;;;;;5042510;28;20479;-81
2022/03/18 01:43:47;;;;;;;;;;;4.40;81.40;;;;;;5044340;28;19968;-80
2022/03/18 01:46:13;;;;;;;;;;;4.30;81.30;;;;;;5048657;28;19909;-81
2022/03/18 01:48:39;;;;;;;;;;;4.30;81.10;;;;;;5052180;28;19924;-80
2022/03/18 01:51:05;;;;;;;;;;;4.30;80.60;;;;;;5048814;28;20250;-80
2022/03/18 01:53:31;;;;;;;;;;;4.30;81.00;;;;;;5046238;28;19928;-81
2022/03/18 01:55:57;;;;;;;;;;;4.40;81.40;;;;;;5038817;28;19910;-80
2022/03/18 01:58:23;;;;;;;;;;;4.30;81.40;;;;;;5045193;28;19921;-81
2022/03/18 02:00:48;;;;;;;;;;;4.40;81.10;;;;;;5049789;28;20027;-81
2022/03/18 02:03:14;;;;;;;;;;;4.30;81.30;;;;;;5054453;28;19912;-82
2022/03/18 02:05:40;;;;;;;;;;;4.30;81.80;;;;;;5041775;28;20015;-80
2022/03/18 02:08:08;;;;;;;;;;;4.30;81.70;;;;;;5044238;28;19972;-81
2022/03/18 02:10:33;;;;;;;;;;;4.20;81.90;;;;;;5048887;28;19947;-81
2022/03/18 02:12:59;;;;;;;;;;;4.30;81.50;;;;;;5055874;28;19921;-81
2022/03/18 02:15:24;;;;;;;;;;;4.30;81.30;;;;;;5033510;28;19963;-81
2022/03/18 02:17:50;;;;;;;;;;;4.30;81.00;;;;;;5041265;28;19910;-81
2022/03/18 02:20:16;;;;;;;;;;;4.40;80.70;;;;;;5038724;28;19920;-80
2022/03/18 02:22:41;;;;;;;;;;;4.30;81.20;;;;;;5046047;28;19924;-81
2022/03/18 02:25:09;;;;;;;;;;;4.30;81.20;;;;;;5051497;28;19920;-82
2022/03/18 02:27:36;;;;;;;;;;;4.40;81.20;;;;;;5044946;28;19921;-81
2022/03/18 02:30:02;;;;;;;;;;;4.30;80.70;;;;;;5045887;28;19921;-82
2022/03/18 02:32:29;;;;;;;;;;;4.30;80.50;;;;;;5068311;28;19913;-81
2022/03/18 02:34:54;;;;;;;;;;;4.20;80.60;;;;;;5051813;28;19917;-81
2022/03/18 02:37:20;;;;;;;;;;;4.20;80.80;;;;;;5052175;28;19980;-82
2022/03/18 02:39:45;;;;;;;;;;;4.20;80.50;;;;;;5070885;28;19955;-82
2022/03/18 02:42:11;;;;;;;;;;;4.10;81.00;;;;;;5064130;28;19970;-81
2022/03/18 02:44:36;;;;;;;;;;;4.20;80.80;;;;;;5059318;28;19913;-81
2022/03/18 02:47:02;;;;;;;;;;;4.10;81.10;;;;;;5054098;28;19952;-81
2022/03/18 02:49:27;;;;;;;;;;;4.00;80.80;;;;;;5058159;28;19916;-81
2022/03/18 02:51:53;;;;;;;;;;;4.00;81.20;;;;;;5054266;28;19951;-81
2022/03/18 02:54:19;;;;;;;;;;;4.00;81.40;;;;;;5053057;28;19921;-82
2022/03/18 02:56:44;;;;;;;;;;;4.00;81.20;;;;;;5054019;28;19919;-82
2022/03/18 02:59:10;;;;;;;;;;;4.00;81.20;;;;;;5041636;28;20015;-82
2022/03/18 03:01:35;;;;;;;;;;;3.90;81.30;;;;;;5065516;28;19908;-83
2022/03/18 03:04:01;;;;;;;;;;;3.80;80.90;;;;;;5070943;28;19976;-82
2022/03/18 03:09:11;;;;;;;;;;;3.60;81.20;;;;;;5037814;28;19935;-81
2022/03/18 03:11:36;;;;;;;;;;;3.60;81.30;;;;;;5040693;28;20460;-81
2022/03/18 03:14:02;;;;;;;;;;;3.60;81.00;;;;;;5049682;28;19917;-83
2022/03/18 03:16:28;;;;;;;;;;;3.60;80.90;;;;;;5053300;28;19948;-83
2022/03/18 03:18:53;;;;;;;;;;;3.60;81.10;;;;;;5052358;28;19919;-80
2022/03/18 03:21:19;;;;;;;;;;;3.60;81.30;;;;;;5046366;28;19912;-82
2022/03/18 03:23:45;;;;;;;;;;;3.60;81.60;;;;;;5053064;28;20416;-80
2022/03/18 03:26:11;;;;;;;;;;;3.50;82.00;;;;;;5063016;28;20003;-80
2022/03/18 03:28:37;;;;;;;;;;;3.50;81.90;;;;;;5046772;28;19956;-82
2022/03/18 03:31:03;;;;;;;;;;;3.50;81.60;;;;;;5050009;28;20415;-82
2022/03/18 03:33:28;;;;;;;;;;;3.40;81.30;;;;;;5043741;28;19912;-82
2022/03/18 03:35:54;;;;;;;;;;;3.40;81.50;;;;;;5042429;28;19925;-82
2022/03/18 03:38:21;;;;;;;;;;;3.30;81.40;;;;;;5040105;28;19987;-82
2022/03/18 03:40:47;;;;;;;;;;;3.30;81.70;;;;;;5058494;28;19913;-82
2022/03/18 03:43:12;;;;;;;;;;;3.30;81.90;;;;;;5050835;28;19928;-82
2022/03/18 03:45:38;;;;;;;;;;;3.30;81.90;;;;;;5049648;28;19917;-81
2022/03/18 03:48:05;;;;;;;;;;;3.30;82.20;;;;;;5050795;28;19917;-81
2022/03/18 03:50:30;;;;;;;;;;;3.30;82.10;;;;;;5042326;28;19963;-81
2022/03/18 03:52:56;;;;;;;;;;;3.20;81.90;;;;;;5034516;28;19920;-80
2022/03/18 03:55:22;;;;;;;;;;;3.20;82.00;;;;;;5037079;28;19925;-81
2022/03/18 03:57:47;;;;;;;;;;;3.30;81.60;;;;;;5046885;28;20332;-81
2022/03/18 04:00:13;;;;;;;;;;;3.10;81.60;;;;;;5030469;28;19913;-80
2022/03/18 04:02:39;;;;;;;;;;;3.10;81.90;;;;;;5044257;28;19917;-81
2022/03/18 04:05:07;;;;;;;;;;;3.10;81.90;;;;;;5037462;28;19917;-81
2022/03/18 04:07:33;;;;;;;;;;;3.10;82.00;;;;;;5044658;28;19912;-82
2022/03/18 04:09:58;;;;;;;;;;;3.10;82.20;;;;;;5034829;28;19913;-81
2022/03/18 04:12:27;;;;;;;;;;;3.10;81.70;;;;;;5031288;28;19919;-81
2022/03/18 04:14:53;;;;;;;;;;;3.10;81.90;;;;;;5034213;28;20384;-81
2022/03/18 04:17:18;;;;;;;;;;;3.00;81.90;;;;;;5032005;28;19920;-82
2022/03/18 04:19:44;;;;;;;;;;;2.90;81.80;;;;;;5032657;28;19913;-81
2022/03/18 04:22:09;;;;;;;;;;;2.90;81.80;;;;;;5048879;28;19917;-81
2022/03/18 04:24:35;;;;;;;;;;;2.90;82.40;;;;;;5077046;28;19921;-83
2022/03/18 04:27:00;;;;;;;;;;;2.90;82.60;;;;;;5067149;28;19912;-83
2022/03/18 04:29:26;;;;;;;;;;;2.90;82.80;;;;;;5057270;28;19928;-82
2022/03/18 04:31:51;;;;;;;;;;;3.00;83.20;;;;;;5061611;28;19936;-83
2022/03/18 04:34:17;;;;;;;;;;;3.00;83.00;;;;;;5053646;28;19909;-84
2022/03/18 04:36:43;;;;;;;;;;;3.00;82.90;;;;;;5059325;28;19913;-83
2022/03/18 04:39:08;;;;;;;;;;;2.90;82.70;;;;;;5065328;28;19911;-83
2022/03/18 04:41:34;;;;;;;;;;;2.80;83.00;;;;;;5072441;28;19917;-82
2022/03/18 04:44:01;;;;;;;;;;;2.80;83.00;;;;;;5058921;28;19913;-83
2022/03/18 04:46:28;;;;;;;;;;;2.80;83.20;;;;;;5047112;28;19913;-82
2022/03/18 04:48:54;;;;;;;;;;;2.90;83.10;;;;;;5058586;28;19977;-83
2022/03/18 04:51:19;;;;;;;;;;;2.90;83.30;;;;;;5048946;28;19953;-83
2022/03/18 04:53:45;;;;;;;;;;;2.90;83.60;;;;;;5044259;28;19931;-84
2022/03/18 04:57:15;;;;;;;;;;;2.80;83.90;;;;;;5053847;28;19971;-82
2022/03/18 04:58:56;;;;;;;;;;;2.90;83.90;;;;;;5048809;28;19923;-83
2022/03/18 05:01:21;;;;;;;;;;;2.90;84.00;;;;;;5055928;28;19913;-83
2022/03/18 05:03:47;;;;;;;;;;;3.00;84.10;;;;;;5056507;28;19931;-83
2022/03/18 05:06:12;;;;;;;;;;;2.90;83.90;;;;;;5046932;28;20366;-83
2022/03/18 05:08:38;;;;;;;;;;;2.90;84.00;;;;;;5037530;28;19939;-83
2022/03/18 05:11:03;;;;;;;;;;;3.00;84.10;;;;;;5052782;28;19909;-85
2022/03/18 05:13:29;;;;;;;;;;;2.90;83.90;;;;;;5050039;28;20449;-84
2022/03/18 05:15:56;;;;;;;;;;;3.00;83.80;;;;;;5039153;28;19920;-85
2022/03/18 05:18:22;;;;;;;;;;;3.00;83.80;;;;;;5037944;28;19909;-85
2022/03/18 05:20:47;;;;;;;;;;;3.00;83.60;;;;;;5048224;28;19913;-84
2022/03/18 05:23:14;;;;;;;;;;;3.00;83.50;;;;;;5037110;28;20047;-85
2022/03/18 05:25:40;;;;;;;;;;;3.00;83.70;;;;;;5054870;28;19924;-84
2022/03/18 05:28:06;;;;;;;;;;;2.90;83.40;;;;;;5056506;28;19939;-85
2022/03/18 05:30:32;;;;;;;;;;;2.90;83.80;;;;;;5042344;28;20440;-85
2022/03/18 05:32:57;;;;;;;;;;;3.00;84.10;;;;;;5040109;28;19959;-85
2022/03/18 05:35:23;;;;;;;;;;;3.00;84.40;;;;;;5058052;28;19916;-87
2022/03/18 05:37:48;;;;;;;;;;;2.90;84.80;;;;;;5060595;28;19923;-86
2022/03/18 05:40:17;;;;;;;;;;;3.00;84.60;;;;;;5065311;28;19913;-86
2022/03/18 05:42:43;;;;;;;;;;;3.00;84.20;;;;;;5069132;28;20004;-86
2022/03/18 05:45:09;;;;;;;;;;;3.00;83.70;;;;;;5062232;28;19909;-86
2022/03/18 05:47:34;;;;;;;;;;;3.10;83.50;;;;;;5069108;28;19955;-86
2022/03/18 05:50:03;;;;;;;;;;;3.10;83.30;;;;;;5069217;28;19897;-86
2022/03/18 05:52:30;;;;;;;;;;;3.10;83.10;;;;;;5052920;28;19945;-85
2022/03/18 05:54:56;;;;;;;;;;;3.00;82.80;;;;;;5044449;28;19928;-84
2022/03/18 05:57:23;;;;;;;;;;;2.90;82.20;;;;;;5054241;28;19995;-85
2022/03/18 05:59:49;;;;;;;;;;;2.80;82.00;;;;;;5043698;28;19990;-87
2022/03/18 06:02:15;;;;;;;;;;;2.80;82.30;;;;;;5053545;28;19917;-84
2022/03/18 06:04:42;;;;;;;;;;;2.70;82.40;;;;;;5043972;28;19983;-86
2022/03/18 06:07:07;;;;;;;;;;;2.80;83.30;;;;;;5047869;28;19913;-85
2022/03/18 06:12:17;;;;;;;;;;;2.80;83.90;;;;;;5056309;28;19950;-86
2022/03/18 06:14:51;;;;;;;;;;;2.70;83.70;;;;;;5044426;28;20369;-86
2022/03/18 06:17:17;;;;;;;;;;;2.70;83.60;;;;;;5043561;28;19921;-86
2022/03/18 06:19:42;;;;;;;;;;;2.70;83.30;;;;;;5053627;28;20265;-84
2022/03/18 06:22:08;;;;;;;;;;;2.70;83.30;;;;;;5051902;28;19913;-85
2022/03/18 06:24:34;;;;;;;;;;;2.70;83.30;;;;;;5060475;28;19928;-83
2022/03/18 06:27:01;;;;;;;;;;;2.80;83.30;;;;;;5062977;28;19924;-83
2022/03/18 06:29:27;;;;;;;;;;;2.80;83.10;;;;;;5059875;28;19962;-86
2022/03/18 06:31:53;;;;;;;;;;;2.70;83.40;;;;;;5057500;28;19939;-86
2022/03/18 06:34:22;;;;;;;;;;;2.70;83.60;;;;;;5053833;28;19917;-83
2022/03/18 06:36:51;;;;;;;;;;;2.80;83.70;;;;;;5054557;28;19909;-84
2022/03/18 06:39:19;;;;;;;;;;;2.80;83.70;;;;;;5037934;28;19976;-87
2022/03/18 06:41:46;;;;;;;;;;;2.90;83.70;;;;;;5054540;28;19913;-84
2022/03/18 06:44:11;;;;;;;;;;;3.00;83.40;;;;;;5035135;28;19917;-82
2022/03/18 06:46:37;;;;;;;;;;;3.00;83.20;;;;;;5041553;28;19923;-86
2022/03/18 06:49:03;;;;;;;;;;;3.10;83.80;;;;;;5047199;28;19917;-84
2022/03/18 06:51:29;;;;;;;;;;;3.10;83.90;;;;;;5045855;28;19917;-84
2022/03/18 06:53:54;;;;;;;;;;;3.20;83.80;;;;;;5039501;28;19951;-83
2022/03/18 06:56:20;;;;;;;;;;;3.30;83.90;;;;;;5047083;28;20043;-83
2022/03/18 06:58:46;;;;;;;;;;;3.50;83.90;;;;;;5044110;28;19995;-83
2022/03/18 07:01:12;;;;;;;;;;;3.60;83.70;;;;;;5042812;28;19948;-84
2022/03/18 07:03:38;;;;;;;;;;;3.80;83.40;;;;;;5037326;28;19917;-86
2022/03/18 07:06:03;;;;;;;;;;;3.80;83.30;;;;;;5048380;28;19944;-82
2022/03/18 07:08:30;;;;;;;;;;;4.00;83.10;;;;;;5036522;28;19920;-83
2022/03/18 07:10:55;;;;;;;;;;;4.10;82.50;;;;;;5044151;28;19940;-83
2022/03/18 07:13:21;;;;;;;;;;;4.30;82.10;;;;;;5049008;28;20373;-83
2022/03/18 07:15:46;;;;;;;;;;;4.30;81.60;;;;;;5050488;28;19980;-82
2022/03/18 07:18:12;;;;;;;;;;;4.20;81.30;;;;;;5052887;28;20349;-84
2022/03/18 07:20:38;;;;;;;;;;;4.40;81.90;;;;;;5041499;28;19955;-84
2022/03/18 07:23:08;;;;;;;;;;;4.50;81.30;;;;;;5050530;28;19913;-83
2022/03/18 07:25:35;;;;;;;;;;;4.60;81.60;;;;;;5063855;28;20647;-83
2022/03/18 07:31:29;;;;;;;;;;;4.80;82.10;;;;;;5026801;28;19956;-84
2022/03/18 07:33:58;;;;;;;;;;;5.00;81.90;;;;;;5043065;28;20435;-83
2022/03/18 07:36:23;;;;;;;;;;;5.10;81.70;;;;;;5043175;28;20502;-82
2022/03/18 07:38:49;;;;;;;;;;;5.20;81.30;;;;;;5046939;28;19913;-83
2022/03/18 07:41:15;;;;;;;;;;;5.10;81.30;;;;;;5044009;28;20015;-81
2022/03/18 07:43:41;;;;;;;;;;;5.00;81.30;;;;;;5043775;28;20120;-84
2022/03/18 07:46:06;;;;;;;;;;;4.90;81.60;;;;;;5049315;28;20009;-84
2022/03/18 07:48:32;;;;;;;;;;;4.90;81.20;;;;;;5058816;28;20393;-83
2022/03/18 07:50:57;;;;;;;;;;;4.90;82.00;;;;;;5048019;28;20341;-83
2022/03/18 07:53:24;;;;;;;;;;;4.90;82.00;;;;;;5055306;28;19992;-84
2022/03/18 07:55:50;;;;;;;;;;;5.10;82.40;;;;;;5031436;28;19909;-83
2022/03/18 07:58:15;;;;;;;;;;;5.20;82.10;;;;;;5065077;28;19912;-84
2022/03/18 08:00:41;;;;;;;;;;;5.30;80.70;;;;;;5048479;28;19920;-83
2022/03/18 08:03:06;;;;;;;;;;;5.30;80.20;;;;;;5052139;28;20293;-83
2022/03/18 08:05:32;;;;;;;;;;;5.40;80.50;;;;;;5054515;28;20021;-83
2022/03/18 08:07:58;;;;;;;;;;;5.40;80.60;;;;;;5057259;28;19955;-83
2022/03/18 08:10:23;;;;;;;;;;;5.50;81.00;;;;;;5047506;28;19913;-83
2022/03/18 08:12:49;;;;;;;;;;;5.60;80.50;;;;;;5055826;28;19913;-84
2022/03/18 08:15:15;;;;;;;;;;;5.70;80.60;;;;;;5054445;28;19924;-84
2022/03/18 08:17:41;;;;;;;;;;;5.80;80.30;;;;;;5057476;28;19920;-83
2022/03/18 08:20:07;;;;;;;;;;;6.00;79.90;;;;;;5055260;28;19927;-83
2022/03/18 08:22:34;;;;;;;;;;;6.10;80.10;;;;;;5052312;28;19939;-84
2022/03/18 08:24:59;;;;;;;;;;;6.30;79.00;;;;;;5064461;28;19901;-88
2022/03/18 08:27:25;;;;;;;;;;;6.60;78.10;;;;;;5058046;28;20012;-86
2022/03/18 08:29:53;;;;;;;;;;;6.60;77.30;;;;;;5048849;28;19924;-87
2022/03/18 08:32:18;;;;;;;;;;;6.80;77.20;;;;;;5060338;28;20119;-83
2022/03/18 08:34:44;;;;;;;;;;;6.80;76.30;;;;;;5043565;28;19917;-82
2022/03/18 08:37:10;;;;;;;;;;;6.90;76.20;;;;;;5054704;28;19923;-83
2022/03/18 08:39:37;;;;;;;;;;;7.00;76.00;;;;;;5053514;28;19924;-82
2022/03/18 08:42:03;;;;;;;;;;;7.10;75.90;;;;;;5039485;28;20297;-83
2022/03/18 08:44:29;;;;;;;;;;;7.30;74.40;;;;;;5052820;28;19916;-82
2022/03/18 08:46:55;;;;;;;;;;;7.30;74.20;;;;;;5057169;28;19909;-82
2022/03/18 08:49:20;;;;;;;;;;;7.50;72.50;;;;;;5053622;28;19924;-82
2022/03/18 08:51:57;;;;;;;;;;;7.60;71.60;;;;;;5048374;28;19910;-83
2022/03/18 08:54:23;;;;;;;;;;;7.90;70.20;;;;;;5058736;28;20222;-81
2022/03/18 08:56:48;;;;;;;;;;;7.80;70.80;;;;;;5065704;28;19905;-86
2022/03/18 08:59:14;;;;;;;;;;;7.80;69.90;;;;;;5080572;28;19972;-88
2022/03/18 09:01:39;;;;;;;;;;;7.90;70.60;;;;;;5059573;28;19913;-86
2022/03/18 09:04:05;;;;;;;;;;;7.90;70.40;;;;;;5045281;28;19943;-83
2022/03/18 09:06:31;;;;;;;;;;;8.00;70.40;;;;;;5048150;28;19924;-82
2022/03/18 09:09:02;;;;;;;;;;;8.20;68.40;;;;;;5044807;28;20381;-83
2022/03/18 09:11:28;;;;;;;;;;;8.20;67.10;;;;;;5048883;28;20420;-82
2022/03/18 09:13:53;;;;;;;;;;;8.30;66.90;;;;;;5033321;28;19977;-83
2022/03/18 09:16:19;;;;;;;;;;;8.10;67.60;;;;;;5049515;28;19921;-82
2022/03/18 09:18:44;;;;;;;;;;;8.10;67.50;;;;;;5037021;28;19909;-82
2022/03/18 09:21:10;;;;;;;;;;;8.20;68.50;;;;;;5051780;28;19913;-83
2022/03/18 09:23:36;;;;;;;;;;;8.20;68.30;;;;;;5041068;28;19920;-82
2022/03/18 09:26:01;;;;;;;;;;;8.30;67.70;;;;;;5052233;28;19932;-82
2022/03/18 09:28:28;;;;;;;;;;;8.40;66.50;;;;;;5053181;28;20260;-84
2022/03/18 09:30:54;;;;;;;;;;;8.40;66.30;;;;;;5047371;28;19917;-83
2022/03/18 09:33:19;;;;;;;;;;;8.50;65.90;;;;;;5042721;28;19959;-83
2022/03/18 09:35:45;;;;;;;;;;;8.60;65.80;;;;;;5041342;28;19921;-82
2022/03/18 09:38:10;;;;;;;;;;;8.70;63.70;;;;;;5055972;28;19913;-83
2022/03/18 09:40:37;;;;;;;;;;;8.80;64.70;;;;;;5053542;28;19916;-82
2022/03/18 09:43:04;;;;;;;;;;;8.80;64.40;;;;;;5076164;28;19913;-83
2022/03/18 09:45:31;;;;;;;;;;;8.90;64.20;;;;;;5055566;28;19952;-83
2022/03/18 09:48:02;;;;;;;;;;;9.00;66.00;;;;;;5063037;28;19916;-83
2022/03/18 09:50:28;;;;;;;;;;;9.10;64.90;;;;;;5063742;28;19909;-84
2022/03/18 09:52:54;;;;;;;;;;;9.10;64.70;;;;;;5060758;28;19909;-84
2022/03/18 09:55:20;;;;;;;;;;;9.10;63.80;;;;;;5054102;28;20459;-83
2022/03/18 09:57:45;;;;;;;;;;;9.10;63.70;;;;;;5061107;28;19912;-83
2022/03/18 10:00:11;;;;;;;;;;;9.10;64.30;;;;;;5051593;28;19913;-83
2022/03/18 10:02:37;;;;;;;;;;;9.10;63.10;;;;;;5059904;28;19936;-82
2022/03/18 10:05:02;;;;;;;;;;;9.20;64.80;;;;;;5061282;28;19913;-83
2022/03/18 10:07:29;;;;;;;;;;;9.30;65.40;;;;;;5058950;28;20395;-83
2022/03/18 10:10:03;;;;;;;;;;;9.50;65.50;;;;;;5070483;28;20276;-82
2022/03/18 10:12:29;;;;;;;;;;;9.50;63.90;;;;;;5034935;28;19913;-82
2022/03/18 10:15:02;;;;;;;;;;;9.60;62.00;;;;;;5050736;28;19923;-81
2022/03/18 10:17:36;;;;;;;;;;;9.60;61.90;;;;;;5050932;28;20476;-82
2022/03/18 10:20:02;;;;;;;;;;;9.60;63.20;;;;;;5059534;28;19964;-82
2022/03/18 10:22:28;;;;;;;;;;;9.50;63.10;;;;;;5071654;28;19976;-81
2022/03/18 10:24:54;;;;;;;;;;;9.50;61.60;;;;;;5069385;28;19932;-83
2022/03/18 10:27:20;;;;;;;;;;;9.60;63.80;;;;;;5081452;28;19912;-83
2022/03/18 10:29:49;;;;;;;;;;;9.70;63.10;;;;;;5053250;28;19961;-83
2022/03/18 10:32:16;;;;;;;;;;;9.80;63.70;;;;;;5055220;28;20011;-83
2022/03/18 10:37:39;;;;;;;;;;;9.90;63.80;;;;;;5047880;28;19989;-83
2022/03/18 10:40:04;;;;;;;;;;;10.00;63.10;;;;;;5041815;28;19913;-81
2022/03/18 10:42:30;;;;;;;;;;;10.00;62.80;;;;;;5055045;28;20329;-82
2022/03/18 10:44:57;;;;;;;;;;;10.00;63.30;;;;;;5051163;28;19920;-80
2022/03/18 10:47:30;;;;;;;;;;;10.00;63.30;;;;;;5051124;28;20421;-81
2022/03/18 10:50:11;;;;;;;;;;;10.10;63.10;;;;;;5043367;28;19939;-83
2022/03/18 10:52:40;;;;;;;;;;;10.10;64.80;;;;;;5050536;28;19917;-82
2022/03/18 10:55:15;;;;;;;;;;;10.30;62.30;;;;;;5050240;28;19921;-80
2022/03/18 10:57:48;;;;;;;;;;;10.40;62.60;;;;;;5048883;28;19912;-81
2022/03/18 11:00:14;;;;;;;;;;;10.40;60.00;;;;;;5046912;28;19917;-80
2022/03/18 11:02:42;;;;;;;;;;;10.40;59.90;;;;;;5053458;28;19963;-81
2022/03/18 11:05:08;;;;;;;;;;;10.40;61.50;;;;;;5046101;28;19913;-82
2022/03/18 11:07:41;;;;;;;;;;;10.50;59.10;;;;;;5056164;28;21674;-81
2022/03/18 11:12:55;;;;;;;;;;;10.50;59.40;;;;;;5053593;28;19939;-81
2022/03/18 11:15:24;;;;;;;;;;;10.50;60.20;;;;;;5051327;28;19921;-83
2022/03/18 11:17:50;;;;;;;;;;;10.60;58.70;;;;;;5049310;28;20475;-82
2022/03/18 11:20:20;;;;;;;;;;;10.60;58.40;;;;;;5048302;28;19913;-82
2022/03/18 11:22:47;;;;;;;;;;;10.50;58.50;;;;;;5081668;22;19932;-81
2022/03/18 11:25:13;;;;;;;;;;;10.50;60.70;;;;;;5067972;28;20003;-81
2022/03/18 11:27:41;;;;;;;;;;;10.60;61.20;;;;;;5071652;28;20007;-81
2022/03/18 11:30:16;;;;;;;;;;;10.80;61.00;;;;;;5070219;28;19920;-81
2022/03/18 11:32:42;;;;;;;;;;;11.00;58.10;;;;;;5055774;28;20291;-82
2022/03/18 11:35:07;;;;;;;;;;;10.90;59.30;;;;;;5062480;28;19925;-83
2022/03/18 11:37:33;;;;;;;;;;;11.00;58.10;;;;;;5047600;28;19979;-82
2022/03/18 11:40:17;;;;;;;;;;;11.00;57.20;;;;;;5053508;28;19913;-83
2022/03/18 11:42:45;;;;;;;;;;;11.00;59.10;;;;;;5047590;28;20376;-81
2022/03/18 11:45:12;;;;;;;;;;;11.00;60.10;;;;;;5061306;28;19913;-80
2022/03/18 11:47:39;;;;;;;;;;;11.10;56.80;;;;;;5049171;28;21047;-81
2022/03/18 11:50:23;;;;;;;;;;;11.10;57.40;;;;;;5073425;28;19927;-81
2022/03/18 11:52:58;;;;;;;;;;;11.10;56.90;;;;;;5065879;28;19924;-82
2022/03/18 11:55:23;;;;;;;;;;;11.00;57.40;;;;;;5056531;28;19921;-83
2022/03/18 11:57:49;;;;;;;;;;;11.10;58.10;;;;;;5051826;28;19935;-83
2022/03/18 12:00:26;;;;;;;;;;;11.10;57.70;;;;;;5044221;28;20323;-82
2022/03/18 12:02:52;;;;;;;;;;;11.00;59.00;;;;;;5046546;28;19913;-82
2022/03/18 12:05:19;;;;;;;;;;;11.10;58.40;;;;;;5054154;28;19920;-83
2022/03/18 12:07:46;;;;;;;;;;;11.30;59.60;;;;;;5050307;28;19952;-83
2022/03/18 12:10:14;;;;;;;;;;;11.30;59.70;;;;;;5047460;28;19921;-83
2022/03/18 12:12:40;;;;;;;;;;;11.40;57.20;;;;;;5049830;28;19948;-78
2022/03/18 12:15:08;;;;;;;;;;;11.50;56.60;;;;;;5052471;28;19912;-81
2022/03/18 12:17:47;;;;;;;;;;;11.60;57.30;;;;;;5073498;28;19923;-81
2022/03/18 12:20:20;;;;;;;;;;;11.60;55.40;;;;;;5058511;28;19912;-80
2022/03/18 12:22:46;;;;;;;;;;;11.40;55.90;;;;;;5058181;28;19987;-82
2022/03/18 12:25:12;;;;;;;;;;;11.50;56.40;;;;;;5051623;28;19920;-82
2022/03/18 12:27:39;;;;;;;;;;;11.60;56.00;;;;;;5058186;28;19909;-82
2022/03/18 12:30:34;;;;;;;;;;;11.60;54.10;;;;;;5048546;28;19917;-81
2022/03/18 12:33:01;;;;;;;;;;;11.60;55.80;;;;;;5032039;28;20360;-82
2022/03/18 12:35:37;;;;;;;;;;;11.70;53.70;;;;;;5041921;28;19920;-82
2022/03/18 12:38:13;;;;;;;;;;;11.70;51.70;;;;;;5060561;28;19917;-81
2022/03/18 12:40:40;;;;;;;;;;;11.80;54.10;;;;;;5051699;28;20279;-82
2022/03/18 12:43:05;;;;;;;;;;;11.90;54.30;;;;;;5050495;28;20390;-81
2022/03/18 12:45:34;;;;;;;;;;;12.00;52.80;;;;;;5053236;28;19909;-82
2022/03/18 12:48:00;;;;;;;;;;;12.00;52.00;;;;;;5054178;28;20728;-81
2022/03/18 12:50:26;;;;;;;;;;;12.00;53.00;;;;;;5086880;28;19916;-81
2022/03/18 12:52:52;;;;;;;;;;;12.00;53.80;;;;;;5064951;28;19909;-81
2022/03/18 12:55:19;;;;;;;;;;;12.10;53.80;;;;;;5056629;28;19987;-83
2022/03/18 12:57:45;;;;;;;;;;;12.10;52.60;;;;;;5053296;28;19917;-83
2022/03/18 13:00:11;;;;;;;;;;;12.20;51.60;;;;;;5052185;28;19908;-83
2022/03/18 13:02:37;;;;;;;;;;;12.20;50.90;;;;;;5048811;28;20244;-83
2022/03/18 13:05:05;;;;;;;;;;;12.10;49.80;;;;;;5035430;28;20358;-84
2022/03/18 13:07:30;;;;;;;;;;;12.10;51.30;;;;;;5072287;28;19917;-83
2022/03/18 13:09:56;;;;;;;;;;;12.10;49.70;;;;;;5054426;28;19924;-83
2022/03/18 13:12:25;;;;;;;;;;;12.10;50.70;;;;;;5055441;28;20525;-83
2022/03/18 13:14:53;;;;;;;;;;;12.30;52.60;;;;;;5049587;28;19929;-82
2022/03/18 13:17:22;;;;;;;;;;;12.30;50.10;;;;;;5047886;28;20034;-83
2022/03/18 13:19:50;;;;;;;;;;;12.40;46.90;;;;;;5066628;28;19952;-82
2022/03/18 13:22:21;;;;;;;;;;;12.30;48.80;;;;;;5053306;28;19917;-83
2022/03/18 13:24:47;;;;;;;;;;;12.30;49.00;;;;;;5061926;28;19916;-83
2022/03/18 13:27:12;;;;;;;;;;;12.20;48.70;;;;;;5068225;28;19921;-83
2022/03/18 13:35:10;;;;;;;;;;;12.30;49.80;;;;;;5063079;28;20515;-84
2022/03/18 13:37:36;;;;;;;;;;;12.30;49.00;;;;;;5052321;28;19937;-83
2022/03/18 13:40:09;;;;;;;;;;;12.30;50.10;;;;;;5062152;28;19916;-85
2022/03/18 13:42:34;;;;;;;;;;;12.30;50.20;;;;;;5054727;28;20015;-84
2022/03/18 13:45:00;;;;;;;;;;;12.40;50.00;;;;;;5059995;28;19947;-84
2022/03/18 13:47:27;;;;;;;;;;;12.40;50.00;;;;;;5071674;28;19920;-85
2022/03/18 13:49:56;;;;;;;;;;;12.40;51.60;;;;;;5053564;28;20007;-82
2022/03/18 13:52:32;;;;;;;;;;;12.50;50.60;;;;;;5057360;28;19944;-83
2022/03/18 13:54:59;;;;;;;;;;;12.50;50.80;;;;;;5056632;28;19920;-84
2022/03/18 13:57:25;;;;;;;;;;;12.50;50.80;;;;;;5064230;28;19916;-83
2022/03/18 13:59:55;;;;;;;;;;;12.50;50.40;;;;;;5067636;28;19966;-83
2022/03/18 14:02:28;;;;;;;;;;;12.50;51.60;;;;;;5056003;28;19913;-83
2022/03/18 14:04:54;;;;;;;;;;;12.60;51.40;;;;;;5073542;28;19944;-83
2022/03/18 14:07:20;;;;;;;;;;;12.50;51.90;;;;;;5022758;28;20240;-82
2022/03/18 14:10:05;;;;;;;;;;;12.50;52.70;;;;;;5033646;28;20233;-82
2022/03/18 14:12:31;;;;;;;;;;;12.60;54.60;;;;;;5014073;28;20129;-81
2022/03/18 14:15:11;;;;;;;;;;;12.60;53.30;;;;;;5014253;28;19916;-83
2022/03/18 14:17:53;;;;;;;;;;;12.50;52.70;;;;;;5032326;28;19909;-82
2022/03/18 14:20:19;;;;;;;;;;;12.50;53.30;;;;;;5019697;28;19909;-82
2022/03/18 14:22:45;;;;;;;;;;;12.60;54.50;;;;;;5021040;28;19952;-82
2022/03/18 14:25:11;;;;;;;;;;;12.60;53.80;;;;;;5014671;28;20216;-83
2022/03/18 14:27:46;;;;;;;;;;;12.60;53.90;;;;;;5003429;28;20362;-83
2022/03/18 14:30:21;;;;;;;;;;;12.60;54.10;;;;;;5005401;28;19909;-83
2022/03/18 14:32:48;;;;;;;;;;;12.60;54.40;;;;;;5000610;28;19909;-83
2022/03/18 14:35:13;;;;;;;;;;;12.60;54.10;;;;;;5037300;28;19921;-84
2022/03/18 14:37:40;;;;;;;;;;;12.60;54.50;;;;;;5018488;28;20257;-83
2022/03/18 14:40:10;;;;;;;;;;;12.70;54.00;;;;;;5013260;28;20245;-86
2022/03/18 14:42:39;;;;;;;;;;;12.60;55.20;;;;;;5000640;28;20302;-81
2022/03/18 14:45:06;;;;;;;;;;;12.60;54.60;;;;;;5009817;28;19913;-84
2022/03/18 14:47:31;;;;;;;;;;;12.60;54.30;;;;;;5005015;28;20456;-82
2022/03/18 14:49:57;;;;;;;;;;;12.50;54.60;;;;;;4981690;28;20019;-81